createdAt,value
2023-02-06T00:00:35.302Z,85706.19
2023-02-06T00:03:02.113Z,85701.84
2023-02-06T00:05:29.002Z,85707.91
2023-02-06T00:07:55.890Z,85704.47
2023-02-06T00:10:22.998Z,85713.53
2023-02-06T00:12:50.217Z,85720.81
2023-02-06T00:15:17.159Z,85711.25
2023-02-06T00:17:44.034Z,85715.06
2023-02-06T00:20:11.363Z,85719.06
2023-02-06T00:22:38.385Z,85711.56
2023-02-06T00:25:05.559Z,85714.41
2023-02-06T00:27:32.762Z,85703.03
2023-02-06T00:29:59.705Z,85704.69
2023-02-06T00:32:26.663Z,85710.41
2023-02-06T00:34:53.500Z,85724.91
2023-02-06T00:37:20.293Z,85723.13
2023-02-06T00:39:47.066Z,85718.16
2023-02-06T00:42:14.409Z,85711.19
2023-02-06T00:44:41.373Z,85710.66
2023-02-06T00:47:08.868Z,85710.84
2023-02-06T00:49:35.713Z,85715.53
2023-02-06T00:52:02.509Z,85718.59
2023-02-06T00:54:32.038Z,85721.56
2023-02-06T00:56:58.836Z,85718.19
2023-02-06T00:59:25.656Z,85710.41
2023-02-06T01:01:52.474Z,85712.13
2023-02-06T01:04:19.364Z,85706.69
2023-02-06T01:06:46.095Z,85709.81
2023-02-06T01:09:12.923Z,85710.44
2023-02-06T01:11:39.788Z,85712.34
2023-02-06T01:14:06.751Z,85720.75
2023-02-06T01:16:33.704Z,85715.44
2023-02-06T01:19:04.798Z,85710.38
2023-02-06T01:21:32.657Z,85714.03
2023-02-06T01:23:59.622Z,85710.69
2023-02-06T01:26:27.232Z,85702.69
2023-02-06T01:28:54.738Z,85706.16
2023-02-06T01:31:21.534Z,85700.06
2023-02-06T01:33:58.457Z,85699.03
2023-02-06T01:36:25.299Z,85697.19
2023-02-06T01:38:52.534Z,85704.97
2023-02-06T01:41:20.319Z,85711.44
2023-02-06T01:43:48.431Z,85699.88
2023-02-06T01:46:15.389Z,85702.28
2023-02-06T01:48:51.547Z,85705.97
2023-02-06T01:51:20.333Z,85698.41
2023-02-06T01:53:50.515Z,85702.19
2023-02-06T01:56:19.704Z,85703.59
2023-02-06T01:58:49.046Z,85705.59
2023-02-06T02:01:20.468Z,85700.44
2023-02-06T02:03:48.532Z,85695.34
2023-02-06T02:06:16.875Z,85703.06
2023-02-06T02:08:45.276Z,85699.81
2023-02-06T02:11:18.612Z,85695.41
2023-02-06T02:13:45.604Z,85692.28
2023-02-06T02:16:25.519Z,85691.06
2023-02-06T02:19:15.713Z,85699.28
2023-02-06T02:22:00.936Z,85691.94
2023-02-06T02:24:46.620Z,85692.19
2023-02-06T02:27:22.669Z,85683.94
2023-02-06T02:29:58.710Z,85680.75
2023-02-06T02:32:34.698Z,85681.09
2023-02-06T02:35:13.025Z,85686.31
2023-02-06T02:37:40.105Z,85686.06
2023-02-06T02:40:27.368Z,85693.00
2023-02-06T02:43:09.160Z,85691.41
2023-02-06T02:45:52.382Z,85690.66
2023-02-06T02:48:23.357Z,85697.03
2023-02-06T02:50:50.762Z,85696.72
2023-02-06T02:53:17.680Z,85698.28
2023-02-06T02:55:45.406Z,85701.28
2023-02-06T02:58:15.460Z,85697.31
2023-02-06T03:00:49.276Z,85692.44
2023-02-06T03:03:17.918Z,85693.31
2023-02-06T03:05:52.812Z,85706.00
2023-02-06T03:08:19.633Z,85698.00
2023-02-06T03:10:47.263Z,85703.56
2023-02-06T03:13:16.430Z,85714.88
2023-02-06T03:15:50.867Z,85719.25
2023-02-06T03:18:20.013Z,85708.94
2023-02-06T03:20:48.027Z,85713.72
2023-02-06T03:23:20.486Z,85710.06
2023-02-06T03:25:50.157Z,85717.91
2023-02-06T03:28:20.451Z,85713.34
2023-02-06T03:30:49.190Z,85718.13
2023-02-06T03:33:18.496Z,85713.72
2023-02-06T03:35:45.986Z,85704.25
2023-02-06T03:38:13.201Z,85710.78
2023-02-06T03:40:41.157Z,85711.22
2023-02-06T03:43:08.549Z,85708.53
2023-02-06T03:45:40.207Z,85706.75
2023-02-06T03:48:19.441Z,85713.63
2023-02-06T03:50:48.064Z,85702.25
2023-02-06T03:53:15.742Z,85715.22
2023-02-06T03:55:43.557Z,85707.13
2023-02-06T03:58:12.490Z,85721.00
2023-02-06T04:00:41.004Z,85714.22
2023-02-06T04:03:08.721Z,85718.41
2023-02-06T04:05:35.842Z,85724.69
2023-02-06T04:08:02.944Z,85719.09
2023-02-06T04:10:29.782Z,85717.72
2023-02-06T04:12:57.062Z,85716.59
2023-02-06T04:15:24.130Z,85730.59
2023-02-06T04:18:00.110Z,85727.13
2023-02-06T04:20:28.284Z,85735.44
2023-02-06T04:22:55.115Z,85742.97
2023-02-06T04:25:22.050Z,85748.44
2023-02-06T04:27:49.148Z,85744.06
2023-02-06T04:30:17.471Z,85755.28
2023-02-06T04:32:44.280Z,85752.69
2023-02-06T04:35:11.101Z,85759.72
2023-02-06T04:37:37.979Z,85764.19
2023-02-06T04:40:04.998Z,85771.34
2023-02-06T04:42:31.831Z,85775.41
2023-02-06T04:44:58.621Z,85769.66
2023-02-06T04:47:25.884Z,85773.75
2023-02-06T04:49:53.084Z,85772.44
2023-02-06T04:52:19.898Z,85770.44
2023-02-06T04:54:47.238Z,85772.44
2023-02-06T04:57:14.260Z,85781.41
2023-02-06T04:59:41.048Z,85796.31
2023-02-06T05:02:07.876Z,85791.38
2023-02-06T05:04:34.659Z,85791.38
2023-02-06T05:07:03.076Z,85802.31
2023-02-06T05:09:31.410Z,85799.69
2023-02-06T05:11:58.167Z,85814.44
2023-02-06T05:14:25.115Z,85807.69
2023-02-06T05:16:52.048Z,85818.25
2023-02-06T05:19:18.928Z,85828.44
2023-02-06T05:21:45.674Z,85821.66
2023-02-06T05:24:16.029Z,85827.16
2023-02-06T05:26:42.845Z,85825.53
2023-02-06T05:29:09.798Z,85829.22
2023-02-06T05:31:36.765Z,85826.03
2023-02-06T05:34:03.622Z,85830.69
2023-02-06T05:36:30.477Z,85824.53
2023-02-06T05:38:57.324Z,85823.88
2023-02-06T05:41:24.405Z,85833.28
2023-02-06T05:43:51.271Z,85841.66
2023-02-06T05:46:19.590Z,85841.13
2023-02-06T05:48:46.480Z,85846.91
2023-02-06T05:51:13.568Z,85839.31
2023-02-06T05:53:40.294Z,85842.66
2023-02-06T05:56:07.511Z,85844.75
2023-02-06T05:58:34.686Z,85842.16
2023-02-06T06:01:01.519Z,85841.66
2023-02-06T06:03:28.340Z,85840.97
2023-02-06T06:05:55.165Z,85848.59
2023-02-06T06:08:21.970Z,85853.53
2023-02-06T06:10:52.465Z,85852.41
2023-02-06T06:13:19.417Z,85859.91
2023-02-06T06:15:46.363Z,85860.19
2023-02-06T06:18:13.353Z,85860.41
2023-02-06T06:20:41.517Z,85862.06
2023-02-06T06:23:08.305Z,85864.63
2023-02-06T06:25:35.631Z,85872.41
2023-02-06T06:28:03.163Z,85864.81
2023-02-06T06:30:29.954Z,85862.03
2023-02-06T06:32:57.127Z,85865.91
2023-02-06T06:35:24.155Z,85865.84
2023-02-06T06:37:50.896Z,85869.72
2023-02-06T06:40:17.858Z,85865.56
2023-02-06T06:42:44.678Z,85862.97
2023-02-06T06:45:11.569Z,85877.00
2023-02-06T06:47:38.290Z,85861.09
2023-02-06T06:50:05.676Z,85875.88
2023-02-06T06:52:32.722Z,85883.19
2023-02-06T06:54:59.478Z,85884.66
2023-02-06T06:57:26.325Z,85888.25
2023-02-06T06:59:53.124Z,85890.84
2023-02-06T07:02:20.028Z,85891.91
2023-02-06T07:04:46.898Z,85897.28
2023-02-06T07:07:13.690Z,85901.66
2023-02-06T07:09:40.555Z,85907.53
2023-02-06T07:12:07.375Z,85896.28
2023-02-06T07:14:34.154Z,85901.13
2023-02-06T07:17:01.922Z,85908.13
2023-02-06T07:19:36.243Z,85910.72
2023-02-06T07:22:03.086Z,85906.38
2023-02-06T07:24:29.936Z,85906.69
2023-02-06T07:26:57.928Z,85908.47
2023-02-06T07:29:25.195Z,85906.44
2023-02-06T07:31:52.212Z,85907.84
2023-02-06T07:34:19.070Z,85909.22
2023-02-06T07:36:45.908Z,85909.91
2023-02-06T07:39:12.861Z,85903.00
2023-02-06T07:41:39.743Z,85907.44
2023-02-06T07:44:06.658Z,85902.03
2023-02-06T07:46:34.669Z,85930.22
2023-02-06T07:49:01.443Z,85923.59
2023-02-06T07:51:28.301Z,85921.00
2023-02-06T07:53:55.191Z,85930.69
2023-02-06T07:56:25.474Z,85925.19
2023-02-06T07:58:53.086Z,85941.72
2023-02-06T08:01:20.989Z,85939.47
2023-02-06T08:03:51.522Z,85949.50
2023-02-06T08:06:19.003Z,85939.31
2023-02-06T08:08:45.852Z,85949.41
2023-02-06T08:11:13.710Z,85946.31
2023-02-06T08:13:40.926Z,85946.84
2023-02-06T08:16:08.943Z,85951.09
2023-02-06T08:18:36.755Z,85948.84
2023-02-06T08:21:04.323Z,85945.28
2023-02-06T08:23:31.179Z,85951.72
2023-02-06T08:26:05.227Z,85949.00
2023-02-06T08:28:32.399Z,85950.13
2023-02-06T08:30:59.614Z,85955.44
2023-02-06T08:33:26.636Z,85960.50
2023-02-06T08:35:54.226Z,85961.25
2023-02-06T08:38:21.072Z,85970.59
2023-02-06T08:40:47.910Z,85963.78
2023-02-06T08:43:14.768Z,85968.41
2023-02-06T08:45:41.723Z,85972.84
2023-02-06T08:48:08.572Z,85977.09
2023-02-06T08:50:35.528Z,85971.44
2023-02-06T08:53:03.299Z,85983.72
2023-02-06T08:55:30.304Z,85987.13
2023-02-06T08:57:57.183Z,85984.22
2023-02-06T09:00:24.070Z,85982.84
2023-02-06T09:02:52.838Z,85992.66
2023-02-06T09:05:20.430Z,85996.94
2023-02-06T09:07:47.406Z,85993.84
2023-02-06T09:10:26.670Z,85977.19
2023-02-06T09:12:55.120Z,85987.34
2023-02-06T09:15:22.103Z,85988.41
2023-02-06T09:17:50.346Z,85992.16
2023-02-06T09:20:17.391Z,85989.81
2023-02-06T09:22:44.867Z,85987.50
2023-02-06T09:25:11.747Z,85985.16
2023-02-06T09:27:38.680Z,85996.09
2023-02-06T09:30:05.808Z,85993.25
2023-02-06T09:32:32.592Z,85997.66
2023-02-06T09:34:59.439Z,86000.44
2023-02-06T09:37:26.358Z,85994.50
2023-02-06T09:39:53.140Z,86002.00
2023-02-06T09:42:24.049Z,85994.13
2023-02-06T09:45:09.424Z,85986.16
2023-02-06T09:47:39.505Z,85990.50
2023-02-06T09:50:14.409Z,85983.84
2023-02-06T09:53:00.151Z,85989.94
2023-02-06T09:55:36.356Z,85995.22
2023-02-06T09:58:16.347Z,85981.53
2023-02-06T10:00:52.506Z,85992.22
2023-02-06T10:03:25.313Z,85986.88
2023-02-06T10:05:52.126Z,85983.41
2023-02-06T10:08:37.827Z,85976.84
2023-02-06T10:11:14.598Z,85976.66
2023-02-06T10:13:54.465Z,85972.78
2023-02-06T10:16:33.559Z,85972.34
2023-02-06T10:19:05.591Z,85967.09
2023-02-06T10:22:10.846Z,85975.72
2023-02-06T10:24:42.163Z,85964.25
2023-02-06T10:27:13.767Z,85970.25
2023-02-06T10:29:45.636Z,85961.03
2023-02-06T10:32:38.757Z,85966.22
2023-02-06T10:35:44.097Z,85970.09
2023-02-06T10:38:26.923Z,85962.75
2023-02-06T10:41:08.542Z,85947.34
2023-02-06T10:43:46.279Z,85954.50
2023-02-06T10:46:20.169Z,85945.16
2023-02-06T10:48:53.547Z,85950.88
2023-02-06T10:51:38.382Z,85945.00
2023-02-06T10:54:31.659Z,85955.00
2023-02-06T10:56:59.789Z,85948.63
2023-02-06T10:59:28.370Z,85957.66
2023-02-06T11:02:14.815Z,85952.84
2023-02-06T11:04:44.676Z,85958.88
2023-02-06T11:07:16.862Z,85950.56
2023-02-06T11:09:44.171Z,85941.47
2023-02-06T11:12:30.564Z,85945.09
2023-02-06T11:15:00.628Z,85938.69
2023-02-06T11:17:28.544Z,85942.94
2023-02-06T11:20:00.265Z,85943.91
2023-02-06T11:22:29.447Z,85931.41
2023-02-06T11:24:59.434Z,85939.75
2023-02-06T11:27:26.710Z,85930.84
2023-02-06T11:29:53.560Z,85928.16
2023-02-06T11:32:26.677Z,85923.06
2023-02-06T11:35:01.690Z,85915.44
2023-02-06T11:37:36.181Z,85921.59
2023-02-06T11:40:32.124Z,85925.97
2023-02-06T11:43:17.184Z,85919.59
2023-02-06T11:45:45.301Z,85915.72
2023-02-06T11:48:32.791Z,85911.19
2023-02-06T11:50:59.767Z,85904.69
2023-02-06T11:53:26.682Z,85919.31
2023-02-06T11:56:02.564Z,85909.59
2023-02-06T11:58:29.900Z,85922.53
2023-02-06T12:00:56.852Z,85925.31
2023-02-06T12:03:31.040Z,85921.53
2023-02-06T12:06:18.121Z,85926.13
2023-02-06T12:08:50.024Z,85916.13
2023-02-06T12:11:21.098Z,85926.25
2023-02-06T12:13:54.950Z,85929.59
2023-02-06T12:16:22.885Z,85935.22
2023-02-06T12:18:53.030Z,85932.31
2023-02-06T12:21:38.744Z,85943.06
2023-02-06T12:24:24.239Z,85938.22
2023-02-06T12:26:51.950Z,85942.25
2023-02-06T12:29:22.936Z,85931.53
2023-02-06T12:32:07.615Z,85945.03
2023-02-06T12:34:51.901Z,85946.00
2023-02-06T12:37:22.079Z,85940.00
2023-02-06T12:39:49.324Z,85946.81
2023-02-06T12:42:19.028Z,85956.34
2023-02-06T12:44:57.539Z,85952.59
2023-02-06T12:47:37.411Z,85954.59
2023-02-06T12:50:19.573Z,85961.13
2023-02-06T12:52:50.185Z,85958.34
2023-02-06T12:55:26.251Z,85956.06
2023-02-06T12:57:53.685Z,85958.16
2023-02-06T13:00:29.563Z,85957.16
2023-02-06T13:03:03.062Z,85964.63
2023-02-06T13:05:33.065Z,85972.53
2023-02-06T13:08:05.431Z,85959.31
2023-02-06T13:10:32.303Z,85960.50
2023-02-06T13:12:59.830Z,85968.25
2023-02-06T13:15:28.289Z,85970.69
2023-02-06T13:17:55.894Z,85977.44
2023-02-06T13:20:28.630Z,85970.03
2023-02-06T13:23:16.142Z,85978.59
2023-02-06T13:25:49.176Z,85997.16
2023-02-06T13:28:22.424Z,85986.63
2023-02-06T13:30:51.306Z,85996.31
2023-02-06T13:33:21.057Z,86000.91
2023-02-06T13:35:59.184Z,86000.28
2023-02-06T13:38:28.603Z,85997.28
2023-02-06T13:41:16.538Z,86002.78
2023-02-06T13:43:49.717Z,86008.41
2023-02-06T13:46:20.092Z,86000.78
2023-02-06T13:48:53.252Z,86006.56
2023-02-06T13:51:35.058Z,86003.16
2023-02-06T13:54:20.746Z,86007.47
2023-02-06T13:57:06.212Z,86015.09
2023-02-06T13:59:36.949Z,86004.28
2023-02-06T14:02:12.106Z,86014.03
2023-02-06T14:04:39.928Z,86021.53
2023-02-06T14:07:15.833Z,86008.63
2023-02-06T14:09:43.994Z,86015.75
2023-02-06T14:12:29.750Z,86027.47
2023-02-06T14:15:13.923Z,86022.47
2023-02-06T14:18:07.484Z,86025.28
2023-02-06T14:20:53.314Z,86028.59
2023-02-06T14:23:29.231Z,86023.97
2023-02-06T14:26:14.278Z,86032.41
2023-02-06T14:28:44.003Z,86032.28
2023-02-06T14:31:29.840Z,86027.56
2023-02-06T14:34:06.294Z,86036.00
2023-02-06T14:36:39.181Z,86038.19
2023-02-06T14:39:08.861Z,86049.31
2023-02-06T14:41:39.641Z,86035.72
2023-02-06T14:44:20.653Z,86043.50
2023-02-06T14:46:48.414Z,86030.44
2023-02-06T14:49:24.188Z,86044.66
2023-02-06T14:51:51.921Z,86032.97
2023-02-06T14:54:29.691Z,86038.09
2023-02-06T14:57:00.552Z,86049.00
2023-02-06T14:59:27.795Z,86047.09
2023-02-06T15:01:55.716Z,86048.66
2023-02-06T15:04:27.596Z,86042.75
2023-02-06T15:06:56.281Z,86049.44
2023-02-06T15:09:28.622Z,86057.38
2023-02-06T15:11:57.387Z,86060.69
2023-02-06T15:14:31.745Z,86052.50
2023-02-06T15:17:00.354Z,86056.69
2023-02-06T15:19:28.286Z,86062.44
2023-02-06T15:22:00.635Z,86053.22
2023-02-06T15:24:30.307Z,86047.13
2023-02-06T15:27:02.486Z,86050.50
2023-02-06T15:29:29.471Z,86051.81
2023-02-06T15:32:05.236Z,86054.25
2023-02-06T15:34:32.213Z,86059.81
2023-02-06T15:36:59.045Z,86063.81
2023-02-06T15:39:26.158Z,86068.19
2023-02-06T15:41:53.209Z,86072.53
2023-02-06T15:44:24.815Z,86078.19
2023-02-06T15:46:51.977Z,86086.56
2023-02-06T15:49:19.934Z,86082.81
2023-02-06T15:51:51.902Z,86087.06
2023-02-06T15:54:20.065Z,86099.53
2023-02-06T15:56:55.051Z,86095.53
2023-02-06T15:59:24.484Z,86109.38
2023-02-06T16:01:52.474Z,86108.91
2023-02-06T16:04:31.039Z,86119.38
2023-02-06T16:07:13.947Z,86116.59
2023-02-06T16:09:42.780Z,86116.78
2023-02-06T16:12:10.364Z,86123.22
2023-02-06T16:14:39.380Z,86131.31
2023-02-06T16:17:15.066Z,86126.72
2023-02-06T16:19:47.265Z,86136.13
2023-02-06T16:22:16.162Z,86138.31
2023-02-06T16:24:43.085Z,86143.97
2023-02-06T16:27:20.774Z,86149.38
2023-02-06T16:29:50.849Z,86159.53
2023-02-06T16:32:21.201Z,86159.81
2023-02-06T16:34:48.423Z,86173.31
2023-02-06T16:37:19.708Z,86181.41
2023-02-06T16:39:47.050Z,86185.56
2023-02-06T16:42:15.988Z,86185.75
2023-02-06T16:44:45.589Z,86177.81
2023-02-06T16:47:14.794Z,86183.28
2023-02-06T16:49:41.820Z,86191.13
2023-02-06T16:52:08.797Z,86192.16
2023-02-06T16:54:35.647Z,86197.72
2023-02-06T16:57:09.662Z,86201.72
2023-02-06T16:59:36.530Z,86208.06
2023-02-06T17:02:09.909Z,86217.78
2023-02-06T17:04:36.689Z,86210.88
2023-02-06T17:07:03.475Z,86213.44
2023-02-06T17:09:30.427Z,86213.66
2023-02-06T17:11:58.267Z,86220.81
2023-02-06T17:14:25.044Z,86223.22
2023-02-06T17:16:51.899Z,86220.81
2023-02-06T17:19:18.733Z,86230.19
2023-02-06T17:21:45.689Z,86226.41
2023-02-06T17:24:12.591Z,86239.06
2023-02-06T17:26:39.537Z,86241.59
2023-02-06T17:29:06.374Z,86242.69
2023-02-06T17:31:33.276Z,86231.75
2023-02-06T17:34:00.128Z,86228.34
2023-02-06T17:36:30.116Z,86243.59
2023-02-06T17:38:59.013Z,86233.94
2023-02-06T17:41:26.728Z,86241.06
2023-02-06T17:43:53.644Z,86234.75
2023-02-06T17:46:20.759Z,86227.59
2023-02-06T17:48:47.715Z,86244.72
2023-02-06T17:51:15.355Z,86236.97
2023-02-06T17:53:42.239Z,86248.16
2023-02-06T17:56:12.871Z,86234.59
2023-02-06T17:58:40.818Z,86246.28
2023-02-06T18:01:11.944Z,86246.56
2023-02-06T18:03:39.111Z,86262.13
2023-02-06T18:06:06.168Z,86242.09
2023-02-06T18:08:33.085Z,86248.91
2023-02-06T18:11:00.272Z,86239.66
2023-02-06T18:13:28.440Z,86248.81
2023-02-06T18:15:56.268Z,86249.91
2023-02-06T18:18:24.198Z,86258.91
2023-02-06T18:20:51.262Z,86249.22
2023-02-06T18:23:19.647Z,86240.94
2023-02-06T18:25:46.493Z,86240.25
2023-02-06T18:28:14.985Z,86242.63
2023-02-06T18:30:42.065Z,86243.94
2023-02-06T18:33:11.419Z,86240.13
2023-02-06T18:35:42.110Z,86257.78
2023-02-06T18:38:10.085Z,86251.50
2023-02-06T18:40:37.808Z,86251.84
2023-02-06T18:43:05.583Z,86252.09
2023-02-06T18:45:34.622Z,86261.28
2023-02-06T18:48:02.036Z,86268.88
2023-02-06T18:50:30.333Z,86266.38
2023-02-06T18:52:57.720Z,86268.97
2023-02-06T18:55:25.014Z,86270.19
2023-02-06T18:57:51.881Z,86272.75
2023-02-06T19:00:20.172Z,86278.56
2023-02-06T19:02:47.326Z,86275.66
2023-02-06T19:05:14.482Z,86282.53
2023-02-06T19:07:41.861Z,86282.34
2023-02-06T19:10:16.204Z,86283.31
2023-02-06T19:12:43.459Z,86279.97
2023-02-06T19:15:11.163Z,86285.25
2023-02-06T19:17:38.116Z,86277.75
2023-02-06T19:20:05.649Z,86273.75
2023-02-06T19:22:44.815Z,86282.66
2023-02-06T19:25:14.250Z,86284.34
2023-02-06T19:27:41.506Z,86288.75
2023-02-06T19:30:08.754Z,86292.75
2023-02-06T19:32:36.001Z,86300.72
2023-02-06T19:35:03.712Z,86301.91
2023-02-06T19:37:30.638Z,86296.16
2023-02-06T19:39:57.530Z,86287.66
2023-02-06T19:42:24.536Z,86291.47
2023-02-06T19:44:53.943Z,86298.34
2023-02-06T19:47:20.878Z,86299.94
2023-02-06T19:49:49.536Z,86300.56
2023-02-06T19:52:16.348Z,86288.19
2023-02-06T19:54:43.276Z,86298.38
2023-02-06T19:57:10.114Z,86297.06
2023-02-06T19:59:36.909Z,86307.75
2023-02-06T20:02:03.804Z,86308.03
2023-02-06T20:04:32.480Z,86308.16
2023-02-06T20:06:59.309Z,86303.13
2023-02-06T20:09:28.394Z,86304.63
2023-02-06T20:11:55.661Z,86317.31
2023-02-06T20:14:23.205Z,86308.41
2023-02-06T20:16:50.370Z,86307.72
2023-02-06T20:19:25.594Z,86299.84
2023-02-06T20:21:54.153Z,86306.31
2023-02-06T20:24:22.218Z,86307.13
2023-02-06T20:26:50.483Z,86307.22
2023-02-06T20:29:22.089Z,86313.72
2023-02-06T20:31:49.767Z,86308.63
2023-02-06T20:34:16.872Z,86308.41
2023-02-06T20:36:44.661Z,86301.41
2023-02-06T20:39:12.688Z,86311.00
2023-02-06T20:41:40.125Z,86314.50
2023-02-06T20:44:07.207Z,86307.41
2023-02-06T20:46:35.224Z,86312.28
2023-02-06T20:49:04.897Z,86316.31
2023-02-06T20:51:32.126Z,86312.50
2023-02-06T20:54:02.005Z,86307.00
2023-02-06T20:56:29.355Z,86315.72
2023-02-06T20:58:58.016Z,86312.91
2023-02-06T21:01:26.111Z,86316.13
2023-02-06T21:03:55.158Z,86314.84
2023-02-06T21:06:22.035Z,86304.59
2023-02-06T21:08:50.384Z,86306.31
2023-02-06T21:11:17.703Z,86308.50
2023-02-06T21:13:44.563Z,86296.41
2023-02-06T21:16:13.522Z,86306.69
2023-02-06T21:18:42.748Z,86323.59
2023-02-06T21:21:11.054Z,86315.22
2023-02-06T21:23:38.476Z,86319.09
2023-02-06T21:26:07.488Z,86315.53
2023-02-06T21:28:35.633Z,86320.22
2023-02-06T21:31:04.406Z,86330.59
2023-02-06T21:33:31.618Z,86323.69
2023-02-06T21:35:58.562Z,86321.03
2023-02-06T21:38:27.373Z,86321.59
2023-02-06T21:40:54.159Z,86333.50
2023-02-06T21:43:21.245Z,86329.03
2023-02-06T21:45:48.308Z,86332.31
2023-02-06T21:48:15.502Z,86325.63
2023-02-06T21:50:42.305Z,86326.81
2023-02-06T21:53:09.806Z,86342.38
2023-02-06T21:55:41.148Z,86337.53
2023-02-06T21:58:08.169Z,86337.19
2023-02-06T22:00:38.486Z,86342.09
2023-02-06T22:03:05.441Z,86332.09
2023-02-06T22:05:32.374Z,86327.91
2023-02-06T22:07:59.267Z,86335.00
2023-02-06T22:10:26.694Z,86333.72
2023-02-06T22:12:53.888Z,86329.41
2023-02-06T22:15:20.805Z,86335.00
2023-02-06T22:17:47.618Z,86339.00
2023-02-06T22:20:16.358Z,86336.19
2023-02-06T22:25:48.339Z,86348.88
2023-02-06T22:28:15.234Z,86337.00
2023-02-06T22:30:42.152Z,86352.19
2023-02-06T22:33:09.086Z,86341.00
2023-02-06T22:35:38.983Z,86345.00
2023-02-06T22:38:05.986Z,86349.19
2023-02-06T22:40:32.798Z,86342.00
2023-02-06T22:42:59.618Z,86353.47
2023-02-06T22:45:26.460Z,86346.28
2023-02-06T22:47:53.306Z,86348.50
2023-02-06T22:50:20.221Z,86344.28
2023-02-06T22:53:05.502Z,86344.59
2023-02-06T22:55:52.308Z,86350.59
2023-02-06T22:58:19.193Z,86349.06
2023-02-06T23:00:46.043Z,86354.47
2023-02-06T23:03:12.788Z,86348.50
2023-02-06T23:05:39.812Z,86345.38
2023-02-06T23:08:06.846Z,86341.31
2023-02-06T23:10:33.686Z,86333.59
2023-02-06T23:13:00.518Z,86347.97
2023-02-06T23:15:27.420Z,86337.72
2023-02-06T23:17:54.175Z,86333.94
2023-02-06T23:20:21.097Z,86345.66
2023-02-06T23:22:47.877Z,86339.50
2023-02-06T23:25:14.745Z,86336.38
2023-02-06T23:27:41.504Z,86337.19
2023-02-06T23:30:08.682Z,86335.28
2023-02-06T23:32:35.501Z,86341.66
2023-02-06T23:35:02.522Z,86342.47
2023-02-06T23:37:29.431Z,86346.09
2023-02-06T23:39:56.277Z,86355.19
2023-02-06T23:42:23.409Z,86350.38
2023-02-06T23:44:52.670Z,86355.09
2023-02-06T23:47:19.514Z,86356.06
2023-02-06T23:49:46.252Z,86352.66
2023-02-06T23:52:13.231Z,86359.66
2023-02-06T23:54:39.942Z,86361.47
2023-02-06T23:57:06.843Z,86362.75
2023-02-06T23:59:33.583Z,86364.56
